St Pierre — FIDX — position and weather

sailwx.info

Track history (hours):
 
Tides and Currents Weather Stations Pressure Air Temp Water Temp Dewpoint Dewpoint Depression Visibility Wind Speed Wind Dir Waves Ship Positions

St Pierre

Last reported at 2017-Sep-22 02:00 UTC. Time now 2017-Sep-22 22:46 UTC.
Position N 47°12' W 001°37'.

Length 84 m; draft 6.1 m.

Type: Cargo ship. MMSI: 228024800.

Date/timePositionNaut miles runAvg speedWind from/ knotsBaromVisibWave heightAir tempDewpointWater temp
2017-Sep-22 02:00N 47°12' W 001°37'0 0.0
2017-Sep-22 01:30N 47°12' W 001°37'0 0.0
2017-Sep-22 01:00N 47°12' W 001°37'0 0.0
2017-Sep-22 00:31N 47°12' W 001°37'0 0.0
2017-Sep-22 00:00N 47°12' W 001°37'0 0.0
2017-Sep-21 23:31N 47°12' W 001°37'0 0.0
2017-Sep-21 23:00N 47°12' W 001°37'0 0.0
2017-Sep-21 22:31N 47°12' W 001°37'0 0.0
2017-Sep-21 22:01N 47°12' W 001°37'0 0.0
2017-Sep-21 21:30N 47°12' W 001°37'0 0.0
2017-Sep-21 21:00N 47°12' W 001°37'0 0.0
2017-Sep-21 20:30N 47°12' W 001°37'0 0.0
2017-Sep-21 20:00N 47°12' W 001°37'0 0.0
2017-Sep-21 19:30N 47°12' W 001°37'0 0.0
2017-Sep-21 19:00N 47°12' W 001°37'0 0.0
2017-Sep-21 18:30N 47°12' W 001°37'0 0.0
2017-Sep-21 18:01N 47°12' W 001°37'1 1.5
2017-Sep-21 17:31N 47°12' W 001°38'0 0.0
2017-Sep-21 17:01N 47°12' W 001°38'0 0.0
2017-Sep-21 16:31N 47°12' W 001°38'0 0.0
2017-Sep-21 16:01N 47°12' W 001°38'2 3.2
2017-Sep-21 15:31N 47°12' W 001°40'611.7
2017-Sep-21 15:01N 47°13' W 001°49'611.4
2017-Sep-21 14:30N 47°17' W 001°55'612.6
2017-Sep-21 14:01N 47°18' W 002°04'612.0
2017-Sep-21 13:31N 47°16' W 002°12'611.8
2017-Sep-21 13:00N 47°11' W 002°18'611.1
2017-Sep-21 12:31N 47°07' W 002°23'611.6
2017-Sep-21 12:00N 47°03' W 002°29'5 4.4
2017-Sep-21 10:51N 46°59' W 002°34'0 0.8
2017-Sep-21 10:30N 46°59' W 002°34'2 3.2
2017-Sep-21 10:01N 47°00' W 002°32'510.3
2017-Sep-21 09:31N 47°04' W 002°27'510.3
2017-Sep-21 09:00N 47°08' W 002°21'510.3
2017-Sep-21 08:30N 47°12' W 002°17'612.3
2017-Sep-21 08:00N 47°16' W 002°11'612.1
2017-Sep-21 07:30N 47°18' W 002°02'612.4
2017-Sep-21 07:01N 47°17' W 001°54'611.5
2017-Sep-21 06:31N 47°13' W 001°47'510.4
2017-Sep-21 06:01N 47°12' W 001°40'1 2.8
2017-Sep-21 05:30N 47°12' W 001°38'0 0.0
2017-Sep-21 05:01N 47°12' W 001°38'0 0.0
2017-Sep-21 04:31N 47°12' W 001°38'0 0.0
2017-Sep-21 04:01N 47°12' W 001°38'0 0.0
2017-Sep-21 03:30N 47°12' W 001°38'0 0.0
2017-Sep-21 03:00N 47°12' W 001°38'0 0.0
2017-Sep-21 02:31N 47°12' W 001°38'0 0.0
2017-Sep-21 02:00N 47°12' W 001°38'0 0.0
2017-Sep-21 01:31N 47°12' W 001°38'0 0.0
2017-Sep-21 01:01N 47°12' W 001°38'0 0.0
2017-Sep-21 00:31N 47°12' W 001°38'0 0.0
2017-Sep-21 00:01N 47°12' W 001°38'0 0.0
2017-Sep-20 23:31N 47°12' W 001°38'0 0.0
2017-Sep-20 23:01N 47°12' W 001°38'0 0.0
2017-Sep-20 22:30N 47°12' W 001°38'0 0.0
2017-Sep-20 22:01N 47°12' W 001°38'0 0.0
2017-Sep-20 21:31N 47°12' W 001°38'0 0.0
2017-Sep-20 21:01N 47°12' W 001°38'0 0.0
2017-Sep-20 20:31N 47°12' W 001°38'0 0.0
2017-Sep-20 20:00N 47°12' W 001°38'0 0.0
2017-Sep-20 19:30N 47°12' W 001°38'0 0.0
2017-Sep-20 19:00N 47°12' W 001°38'0 0.0
2017-Sep-20 18:30N 47°12' W 001°38'0 0.0
2017-Sep-20 18:01N 47°12' W 001°38'0 0.2
2017-Sep-20 17:31N 47°12' W 001°38'0 0.0
2017-Sep-20 17:01N 47°12' W 001°38'0 0.0
2017-Sep-20 16:31N 47°12' W 001°38'0 0.0
2017-Sep-20 16:00N 47°12' W 001°38'0 0.0
2017-Sep-20 15:30N 47°12' W 001°38'0 0.0
2017-Sep-20 15:00N 47°12' W 001°38'2 2.3
2017-Sep-20 14:00N 47°12' W 001°41'510.7
2017-Sep-20 13:30N 47°13' W 001°49'510.7
2017-Sep-20 13:01N 47°17' W 001°55'611.6
2017-Sep-20 12:31N 47°18' W 002°03'510.4
2017-Sep-20 12:01N 47°17' W 002°11'510.4
2017-Sep-20 11:30N 47°13' W 002°16'510.6
2017-Sep-20 11:01N 47°09' W 002°20'611.3
2017-Sep-20 10:31N 47°05' W 002°26'610.9
2017-Sep-20 09:55N 47°01' W 002°33'2 4.9
2017-Sep-20 09:30N 46°59' W 002°35'1 2.0
2017-Sep-20 08:58N 46°60' W 002°34'1 1.7
2017-Sep-20 08:30N 47°00' W 002°33'4 7.6
2017-Sep-20 08:00N 47°03' W 002°29'611.2
2017-Sep-20 07:30N 47°06' W 002°23'510.4
2017-Sep-20 07:00N 47°11' W 002°18'510.9
2017-Sep-20 06:31N 47°15' W 002°14'510.9
2017-Sep-20 06:00N 47°18' W 002°07'0 0.2
2017-Sep-20 05:30N 47°18' W 002°07'0 0.0
2017-Sep-20 05:00N 47°18' W 002°07'0 0.0
2017-Sep-20 04:31N 47°18' W 002°07'0 0.0
2017-Sep-20 04:01N 47°18' W 002°07'3 6.1
2017-Sep-20 03:31N 47°17' W 002°11'4 8.8
2017-Sep-20 03:01N 47°14' W 002°16'4 8.3
2017-Sep-20 02:30N 47°10' W 002°18'4 8.4
2017-Sep-20 02:01N 47°07' W 002°22'5 9.0
2017-Sep-20 01:30N 47°04' W 002°27'7 9.2
2017-Sep-20 00:46N 47°00' W 002°36'0 1.2
2017-Sep-20 00:31N 46°60' W 002°36'1 2.8
2017-Sep-20 00:00N 46°60' W 002°34'0 0.6
2017-Sep-19 23:30N 46°60' W 002°33'1 1.3
2017-Sep-19 23:00N 46°59' W 002°34'0 0.1
2017-Sep-19 22:25N 46°59' W 002°34'0 0.7
2017-Sep-19 22:00N 46°59' W 002°34'0 0.9
2017-Sep-19 21:31N 46°60' W 002°34'2 4.2
2017-Sep-19 21:00N 47°01' W 002°31'510.4
2017-Sep-19 20:30N 47°04' W 002°26'611.1
2017-Sep-19 20:00N 47°08' W 002°20'611.4
2017-Sep-19 19:30N 47°13' W 002°16'613.0
2017-Sep-19 19:01N 47°18' W 002°09'1 2.8
2017-Sep-19 18:30N 47°18' W 002°07'0 0.0
2017-Sep-19 18:01N 47°18' W 002°07'0 0.0
2017-Sep-19 17:31N 47°18' W 002°07'0 0.0
2017-Sep-19 17:01N 47°18' W 002°07'0 0.0
2017-Sep-19 16:30N 47°18' W 002°07'0 0.0
2017-Sep-19 16:01N 47°18' W 002°07'0 0.0
2017-Sep-19 15:30N 47°18' W 002°07'0 0.0
2017-Sep-19 15:01N 47°18' W 002°07'0 0.0
2017-Sep-19 10:36N 47°18' W 002°07'0 0.0
2017-Sep-19 10:30N 47°18' W 002°07'0 0.0
2017-Sep-19 08:04N 47°18' W 002°07'0 0.0
2017-Sep-19 08:00N 47°18' W 002°07'0 0.0
2017-Sep-19 07:31N 47°18' W 002°07'0 0.0
2017-Sep-19 07:01N 47°18' W 002°07'0 0.0
2017-Sep-19 06:31N 47°18' W 002°07'0 0.0
2017-Sep-19 06:01N 47°18' W 002°07'0 0.0
2017-Sep-19 05:30N 47°18' W 002°07'0 0.0
2017-Sep-19 05:01N 47°18' W 002°07'0 0.0
2017-Sep-19 04:30N 47°18' W 002°07'0 0.0
2017-Sep-19 04:00N 47°18' W 002°07'0 0.0
2017-Sep-19 03:31N 47°18' W 002°07'0 0.0
2017-Sep-19 03:00N 47°18' W 002°07'0 0.0
2017-Sep-19 02:30N 47°18' W 002°07'0 0.3
2017-Sep-19 02:00N 47°18' W 002°07'0 0.0
2017-Sep-19 01:30N 47°18' W 002°07'0 0.0
2017-Sep-19 01:01N 47°18' W 002°07'0 0.0
2017-Sep-19 00:30N 47°18' W 002°07'1 1.8
2017-Sep-19 00:00N 47°18' W 002°08'713.3
2017-Sep-18 23:30N 47°14' W 002°16'713.3
2017-Sep-18 23:01N 47°08' W 002°20'713.5
2017-Sep-18 22:30N 47°03' W 002°28'611.2
2017-Sep-18 21:59N 46°60' W 002°34'0 0.9
2017-Sep-18 21:30N 46°60' W 002°34'0 1.0
2017-Sep-18 21:00N 46°59' W 002°34'0 0.3
2017-Sep-18 20:30N 46°59' W 002°34'1 1.5
2017-Sep-18 20:00N 46°60' W 002°33'713.2
2017-Sep-18 19:30N 47°04' W 002°26'713.9
2017-Sep-18 19:00N 47°09' W 002°19'714.8
2017-Sep-18 18:30N 47°15' W 002°13'612.9
2017-Sep-18 18:00N 47°18' W 002°04'713.6
2017-Sep-18 17:30N 47°17' W 001°54'612.5
2017-Sep-18 17:00N 47°13' W 001°47'510.6
2017-Sep-18 16:30N 47°12' W 001°40'1 2.8
2017-Sep-18 16:01N 47°12' W 001°38'0 0.0
2017-Sep-18 15:31N 47°12' W 001°38'0 0.0
2017-Sep-18 15:01N 47°12' W 001°38'1 1.8
2017-Sep-18 14:30N 47°12' W 001°39'610.8
2017-Sep-18 14:00N 47°13' W 001°47'611.9
2017-Sep-18 13:31N 47°17' W 001°54'612.2
2017-Sep-18 12:59N 47°18' W 002°03'3 6.4
2017-Sep-18 12:30N 47°18' W 002°07'3 5.2
2017-Sep-18 12:00N 47°17' W 002°10'713.6
2017-Sep-18 11:30N 47°12' W 002°17'612.9
2017-Sep-18 11:00N 47°06' W 002°22'1112.9
2017-Sep-18 10:08N 46°59' W 002°35'0 2.3
2017-Sep-18 10:00N 46°59' W 002°35'1 1.3
2017-Sep-18 09:16N 46°60' W 002°34'0 1.4
2017-Sep-18 08:58N 47°00' W 002°33'2 3.6
2017-Sep-18 08:30N 47°01' W 002°31'713.7
2017-Sep-18 08:00N 47°06' W 002°25'713.9
2017-Sep-18 07:30N 47°11' W 002°18'815.7
2017-Sep-18 07:00N 47°17' W 002°10'2 4.2
2017-Sep-18 06:30N 47°18' W 002°07'0 0.0
2017-Sep-18 06:00N 47°18' W 002°07'3 6.5
2017-Sep-18 05:30N 47°16' W 002°11'510.2
2017-Sep-18 05:00N 47°13' W 002°17'1 2.9
2017-Sep-18 04:30N 47°12' W 002°18'0 0.0
2017-Sep-18 04:00N 47°12' W 002°18'0 0.0
2017-Sep-18 03:30N 47°12' W 002°18'0 0.0
2017-Sep-18 03:00N 47°12' W 002°18'0 0.1
2017-Sep-18 02:30N 47°12' W 002°18'0 0.1
2017-Sep-18 02:00N 47°12' W 002°18'0 0.0
2017-Sep-18 01:30N 47°12' W 002°18'0 0.0
2017-Sep-18 01:00N 47°12' W 002°18'0 0.0
2017-Sep-18 00:30N 47°12' W 002°18'0 0.0
2017-Sep-18 00:00N 47°12' W 002°18'0 0.0
2017-Sep-17 23:30N 47°12' W 002°18'0 0.0
2017-Sep-17 23:00N 47°12' W 002°18'0 0.0
2017-Sep-17 22:30N 47°12' W 002°18'0 0.0
2017-Sep-17 22:00N 47°12' W 002°18'0 0.0
2017-Sep-17 21:30N 47°12' W 002°18'0 0.1
2017-Sep-17 21:00N 47°12' W 002°18'0 0.2
2017-Sep-17 20:30N 47°12' W 002°18'3 6.4
2017-Sep-17 20:00N 47°13' W 002°23'612.6
2017-Sep-17 19:30N 47°14' W 002°32'612.6
2017-Sep-17 19:00N 47°14' W 002°41'612.6
2017-Sep-17 18:30N 47°17' W 002°50'612.4
2017-Sep-17 18:00N 47°20' W 002°58'612.8
2017-Sep-17 17:30N 47°23' W 003°06'611.8
2017-Sep-17 17:00N 47°27' W 003°12'612.9
2017-Sep-17 16:30N 47°33' W 003°16'612.9
2017-Sep-17 16:00N 47°39' W 003°21'510.1
2017-Sep-17 15:30N 47°44' W 003°22'2 4.2
2017-Sep-17 15:00N 47°45' W 003°19'0 0.0
2017-Sep-17 14:30N 47°45' W 003°19'0 0.0
2017-Sep-17 14:00N 47°45' W 003°19'0 0.0
2017-Sep-17 13:30N 47°45' W 003°19'0 0.0
2017-Sep-17 13:00N 47°45' W 003°19'0 0.9
2017-Sep-17 12:30N 47°45' W 003°20'4 8.4
2017-Sep-17 12:00N 47°41' W 003°24'1 2.5
2017-Sep-17 11:30N 47°40' W 003°25'0 0.0
2017-Sep-17 11:00N 47°40' W 003°25'0 0.0
2017-Sep-17 10:30N 47°40' W 003°25'0 0.0
2017-Sep-17 10:00N 47°40' W 003°25'0 0.0
2017-Sep-17 09:30N 47°40' W 003°25'0 0.0
2017-Sep-17 09:00N 47°40' W 003°25'0 0.0
2017-Sep-17 08:30N 47°40' W 003°25'0 0.0
2017-Sep-17 08:00N 47°40' W 003°25'0 0.0
2017-Sep-17 07:30N 47°40' W 003°25'0 0.2
2017-Sep-17 07:00N 47°40' W 003°25'0 0.0
2017-Sep-17 06:30N 47°40' W 003°25'0 0.1
2017-Sep-17 06:00N 47°40' W 003°25'0 0.0
2017-Sep-17 05:30N 47°40' W 003°25'0 0.4
2017-Sep-17 05:00N 47°40' W 003°25'2 4.5
2017-Sep-17 04:30N 47°39' W 003°22'2 4.8
2017-Sep-17 04:00N 47°38' W 003°19'3 5.3
2017-Sep-17 03:30N 47°35' W 003°17'3 6.0
2017-Sep-17 03:00N 47°33' W 003°15'3 5.8
2017-Sep-17 02:30N 47°30' W 003°13'3 5.6
2017-Sep-17 02:00N 47°27' W 003°12'2 5.0
2017-Sep-17 01:30N 47°25' W 003°09'3 6.3
2017-Sep-17 01:00N 47°23' W 003°06'4 7.4
2017-Sep-17 00:30N 47°21' W 003°02'4 7.4
2017-Sep-17 00:00N 47°18' W 002°58'4 7.4
2017-Sep-16 23:30N 47°15' W 002°55'4 7.4
2017-Sep-16 23:00N 47°12' W 002°51'4 7.3
2017-Sep-16 22:30N 47°09' W 002°48'4 7.3
2017-Sep-16 22:00N 47°07' W 002°44'8 7.6
2017-Sep-16 20:53N 47°01' W 002°36'1 3.5
2017-Sep-16 20:30N 46°60' W 002°34'1 1.1
2017-Sep-16 20:00N 46°60' W 002°34'1 1.2
2017-Sep-16 19:30N 47°00' W 002°33'3 4.8
2017-Sep-16 18:54N 47°02' W 002°30'512.8
2017-Sep-16 18:30N 47°06' W 002°25'613.0
2017-Sep-16 18:00N 47°11' W 002°18'713.9
2017-Sep-16 17:30N 47°16' W 002°12'611.6
2017-Sep-16 17:00N 47°18' W 002°04'713.5
2017-Sep-16 16:30N 47°17' W 001°54'612.7
2017-Sep-16 16:00N 47°13' W 001°47'510.7
2017-Sep-16 15:30N 47°11' W 001°39'1 1.8
2017-Sep-16 15:00N 47°12' W 001°38'0 0.0
2017-Sep-16 14:30N 47°12' W 001°38'0 0.0
2017-Sep-16 14:00N 47°12' W 001°38'0 0.0
2017-Sep-16 13:30N 47°12' W 001°38'3 6.0
2017-Sep-16 13:00N 47°12' W 001°42'510.3
2017-Sep-16 12:30N 47°13' W 001°50'510.2
2017-Sep-16 12:00N 47°17' W 001°55'611.1
2017-Sep-16 11:30N 47°18' W 002°03'611.4
2017-Sep-16 11:00N 47°16' W 002°11'612.5
2017-Sep-16 10:30N 47°12' W 002°17'611.3
2017-Sep-16 10:00N 47°07' W 002°22'610.7
2017-Sep-16 09:29N 47°03' W 002°28'610.3
2017-Sep-16 08:54N 46°60' W 002°35'0 1.2
2017-Sep-16 08:30N 46°60' W 002°34'1 1.1
2017-Sep-16 08:00N 47°00' W 002°34'1 1.3
2017-Sep-16 07:29N 47°00' W 002°33'3 6.8
2017-Sep-16 07:00N 47°03' W 002°29'612.3
2017-Sep-16 06:30N 47°07' W 002°23'612.4
2017-Sep-16 06:00N 47°12' W 002°17'713.7
2017-Sep-16 05:31N 47°17' W 002°11'611.7
2017-Sep-16 05:01N 47°18' W 002°02'612.7
2017-Sep-16 04:30N 47°16' W 001°53'612.1
2017-Sep-16 04:00N 47°12' W 001°46'510.5
2017-Sep-16 03:30N 47°11' W 001°39'0 1.0
2017-Sep-16 03:00N 47°12' W 001°38'0 0.0
2017-Sep-16 02:30N 47°12' W 001°38'0 0.0
2017-Sep-16 02:00N 47°12' W 001°38'0 0.0
2017-Sep-16 01:30N 47°12' W 001°38'0 0.0
2017-Sep-16 01:00N 47°12' W 001°38'2 4.9
2017-Sep-16 00:30N 47°12' W 001°41'510.5
2017-Sep-16 00:00N 47°13' W 001°49'510.6
2017-Sep-15 23:30N 47°17' W 001°55'611.5
2017-Sep-15 23:00N 47°18' W 002°03'611.4
2017-Sep-15 22:30N 47°16' W 002°11'612.5
2017-Sep-15 22:00N 47°12' W 002°17'612.0
2017-Sep-15 21:30N 47°07' W 002°22'1211.8
2017-Sep-15 20:31N 46°60' W 002°35'0 2.6
2017-Sep-15 20:28N 46°59' W 002°35'1 1.2
2017-Sep-15 20:00N 46°60' W 002°34'1 1.2
2017-Sep-15 19:30N 46°60' W 002°34'1 1.3
2017-Sep-15 18:57N 47°00' W 002°33'1 1.8
2017-Sep-15 18:30N 47°01' W 002°32'611.5
2017-Sep-15 17:59N 47°05' W 002°26'612.8
2017-Sep-15 17:30N 47°09' W 002°19'713.8
2017-Sep-15 17:00N 47°15' W 002°14'510.5
2017-Sep-15 16:29N 47°18' W 002°07'0 0.0
2017-Sep-15 15:59N 47°18' W 002°07'0 0.0
2017-Sep-15 15:29N 47°18' W 002°07'0 0.0
2017-Sep-15 14:50N 47°18' W 002°07'0 0.0
2017-Sep-15 14:29N 47°18' W 002°07'0 0.0
2017-Sep-15 13:59N 47°18' W 002°07'0 0.0
2017-Sep-15 13:29N 47°18' W 002°07'0 0.0
2017-Sep-15 13:01N 47°18' W 002°07'0 0.0
2017-Sep-15 12:30N 47°18' W 002°07'0 0.0
2017-Sep-15 12:01N 47°18' W 002°07'0 0.0
2017-Sep-15 11:30N 47°18' W 002°07'0 0.0
2017-Sep-15 11:01N 47°18' W 002°07'0 0.0
2017-Sep-15 10:31N 47°18' W 002°07'0 0.0
2017-Sep-15 10:00N 47°18' W 002°07'0 0.0
2017-Sep-15 09:30N 47°18' W 002°07'0 0.0
2017-Sep-15 09:00N 47°18' W 002°07'0 0.0
2017-Sep-15 08:30N 47°18' W 002°07'0 0.0
2017-Sep-15 08:01N 47°18' W 002°07'0 0.0
2017-Sep-15 07:30N 47°18' W 002°07'0 0.0
2017-Sep-15 07:00N 47°18' W 002°07'0 0.0
2017-Sep-15 06:30N 47°18' W 002°07'0 0.0
2017-Sep-15 06:00N 47°18' W 002°07'0 0.0
2017-Sep-15 05:31N 47°18' W 002°07'0 0.0
2017-Sep-15 05:01N 47°18' W 002°07'0 0.0
2017-Sep-15 04:31N 47°18' W 002°07'0 0.0
2017-Sep-15 04:00N 47°18' W 002°07'0 0.0
2017-Sep-15 03:30N 47°18' W 002°07'2 4.4
2017-Sep-15 03:00N 47°18' W 002°04'613.1
2017-Sep-15 02:31N 47°17' W 001°55'612.3
2017-Sep-15 02:00N 47°13' W 001°48'510.7
2017-Sep-15 01:30N 47°12' W 001°40'2 3.0
2017-Sep-15 01:00N 47°12' W 001°38'0 0.0
2017-Sep-15 00:30N 47°12' W 001°38'0 0.0
2017-Sep-15 00:00N 47°12' W 001°38'0 0.0
2017-Sep-14 23:30N 47°12' W 001°38'1 1.5
2017-Sep-14 23:00N 47°11' W 001°39'5 9.8
2017-Sep-14 22:30N 47°12' W 001°46'5 9.6
2017-Sep-14 22:00N 47°16' W 001°51'510.4
2017-Sep-14 21:30N 47°17' W 001°59'510.8
2017-Sep-14 21:00N 47°18' W 002°06'611.5
2017-Sep-14 20:30N 47°15' W 002°14'611.2
2017-Sep-14 20:00N 47°10' W 002°18'15 6.4
2017-Sep-14 17:40N 46°60' W 002°34'0 1.3
2017-Sep-14 17:25N 46°60' W 002°34'0 1.1
2017-Sep-14 17:00N 47°00' W 002°33'1 2.9
2017-Sep-14 16:30N 47°01' W 002°31'4 8.0
2017-Sep-14 16:00N 47°03' W 002°26'611.1
2017-Sep-14 15:30N 47°07' W 002°21'611.9
2017-Sep-14 15:00N 47°13' W 002°17'813.2
2017-Sep-14 14:24N 47°18' W 002°08'512.5
2017-Sep-14 14:00N 47°18' W 002°01'712.3
2017-Sep-14 13:27N 47°16' W 001°51'611.0
2017-Sep-14 12:55N 47°12' W 001°44'4 8.7
2017-Sep-14 12:26N 47°12' W 001°38'0 0.0
2017-Sep-14 11:41N 47°12' W 001°38'0 0.0
2017-Sep-14 11:30N 47°12' W 001°38'0 0.0
2017-Sep-14 10:56N 47°12' W 001°38'0 0.0
2017-Sep-14 10:26N 47°12' W 001°38'0 0.0
2017-Sep-14 09:59N 47°12' W 001°38'0 0.0
2017-Sep-14 09:29N 47°12' W 001°38'0 0.0
2017-Sep-14 08:23N 47°12' W 001°38'0 0.0
2017-Sep-14 08:00N 47°12' W 001°38'0 0.0
2017-Sep-14 07:30N 47°12' W 001°38'0 0.0
2017-Sep-14 07:00N 47°12' W 001°38'0 0.0
2017-Sep-14 06:30N 47°12' W 001°38'0 0.0
2017-Sep-14 06:00N 47°12' W 001°38'0 0.0
2017-Sep-14 05:30N 47°12' W 001°38'0 0.0
2017-Sep-14 05:00N 47°12' W 001°38'0 0.0
2017-Sep-14 04:30N 47°12' W 001°38'0 0.0
2017-Sep-14 04:00N 47°12' W 001°38'0 0.0
2017-Sep-14 03:30N 47°12' W 001°38'0 0.0
2017-Sep-14 03:00N 47°12' W 001°38'0 0.0
2017-Sep-14 02:29N 47°12' W 001°38'0 0.0
2017-Sep-14 02:00N 47°12' W 001°38'0 0.0
2017-Sep-14 01:30N 47°12' W 001°38'0 0.0
2017-Sep-14 01:00N 47°12' W 001°38'0 0.0
2017-Sep-14 00:30N 47°12' W 001°38'0 0.0
2017-Sep-14 00:00N 47°12' W 001°38'0 0.0
2017-Sep-13 23:30N 47°12' W 001°38'0 0.0
2017-Sep-13 23:00N 47°12' W 001°38'0 0.0
2017-Sep-13 22:30N 47°12' W 001°38'0 0.0
2017-Sep-13 22:00N 47°12' W 001°38'0 0.0
2017-Sep-13 21:30N 47°12' W 001°38'0 0.1
2017-Sep-13 21:00N 47°12' W 001°38'4 8.0
2017-Sep-13 20:30N 47°12' W 001°44'510.6
2017-Sep-13 20:00N 47°15' W 001°51'611.3
2017-Sep-13 19:30N 47°17' W 001°58'611.6
2017-Sep-13 19:00N 47°18' W 002°07'612.5
2017-Sep-13 18:30N 47°15' W 002°14'3 7.0
2017-Sep-13 18:00N 47°12' W 002°18'0 0.1
2017-Sep-13 17:29N 47°12' W 002°18'0 0.1
2017-Sep-13 17:00N 47°12' W 002°18'0 0.1
2017-Sep-13 16:30N 47°12' W 002°18'0 0.0
2017-Sep-13 15:59N 47°12' W 002°18'0 0.0
2017-Sep-13 15:30N 47°12' W 002°18'0 0.0
2017-Sep-13 15:00N 47°12' W 002°18'0 0.1
2017-Sep-13 14:28N 47°12' W 002°18'0 0.1
2017-Sep-13 14:00N 47°12' W 002°18'0 0.0
2017-Sep-13 13:30N 47°12' W 002°18'0 0.0
2017-Sep-13 13:00N 47°12' W 002°18'0 0.1
2017-Sep-13 12:30N 47°12' W 002°18'0 0.1
2017-Sep-13 12:00N 47°12' W 002°18'0 0.0
2017-Sep-13 11:30N 47°12' W 002°18'0 0.0
2017-Sep-13 10:33N 47°12' W 002°18'0 0.0
2017-Sep-13 10:24N 47°12' W 002°18'0 0.2
2017-Sep-13 09:57N 47°12' W 002°18'2 5.1
2017-Sep-13 09:30N 47°10' W 002°19'4 7.0
2017-Sep-13 08:58N 47°07' W 002°22'3 7.0
2017-Sep-13 08:30N 47°05' W 002°25'4 7.1
2017-Sep-13 07:57N 47°02' W 002°30'4 6.8
2017-Sep-13 07:18N 46°59' W 002°35'0 1.2
2017-Sep-13 06:59N 46°60' W 002°35'1 1.3
2017-Sep-13 06:30N 46°60' W 002°34'1 1.3
2017-Sep-13 05:57N 47°00' W 002°33'2 3.5
2017-Sep-13 05:30N 47°01' W 002°31'3 6.0
2017-Sep-13 05:00N 47°03' W 002°27'3 6.5
2017-Sep-13 04:30N 47°05' W 002°24'2 3.2
2017-Sep-13 04:00N 47°06' W 002°22'0 0.1
2017-Sep-13 03:30N 47°06' W 002°22'0 0.5
2017-Sep-13 03:00N 47°06' W 002°22'0 0.5
2017-Sep-13 02:30N 47°06' W 002°21'0 1.0
2017-Sep-13 02:00N 47°06' W 002°20'1 1.1
2017-Sep-13 01:30N 47°06' W 002°20'2 3.2
2017-Sep-13 01:00N 47°07' W 002°21'510.0
2017-Sep-13 00:30N 47°11' W 002°18'611.9
2017-Sep-13 00:00N 47°16' W 002°12'611.6
2017-Sep-12 23:30N 47°18' W 002°04'612.5
2017-Sep-12 23:00N 47°17' W 001°55'611.8
2017-Sep-12 22:30N 47°13' W 001°49'510.9
2017-Sep-12 22:00N 47°12' W 001°41'2 3.9
2017-Sep-12 21:30N 47°12' W 001°38'0 0.0
2017-Sep-12 21:00N 47°12' W 001°38'0 0.0
2017-Sep-12 20:30N 47°12' W 001°38'0 0.0
2017-Sep-12 20:00N 47°12' W 001°38'0 0.0
2017-Sep-12 19:30N 47°12' W 001°38'1 1.8
2017-Sep-12 19:00N 47°12' W 001°39'510.7
2017-Sep-12 18:30N 47°13' W 001°47'511.0
2017-Sep-12 18:00N 47°16' W 001°53'510.9
2017-Sep-12 17:30N 47°17' W 002°01'4 8.6
2017-Sep-12 16:59N 47°18' W 002°07'1 2.1
2017-Sep-12 16:21N 47°18' W 002°09'712.6
2017-Sep-12 15:48N 47°13' W 002°16'412.1
2017-Sep-12 15:30N 47°10' W 002°19'6 1.4
2017-Sep-12 11:28N 47°05' W 002°24'1312.3
2017-Sep-12 10:27N 47°15' W 002°13'5 3.0
2017-Sep-12 08:48N 47°18' W 002°07'0 0.0
2017-Sep-12 08:30N 47°18' W 002°07'0 0.0
2017-Sep-12 08:00N 47°18' W 002°07'0 0.0
2017-Sep-12 07:30N 47°18' W 002°07'0 0.0
2017-Sep-12 07:00N 47°18' W 002°07'0 0.0
2017-Sep-12 06:30N 47°18' W 002°07'0 0.0
2017-Sep-12 06:00N 47°18' W 002°07'0 0.0
2017-Sep-12 05:30N 47°18' W 002°07'0 0.0
2017-Sep-12 05:00N 47°18' W 002°07'1 1.4
2017-Sep-12 04:30N 47°18' W 002°08'612.5
2017-Sep-12 04:00N 47°14' W 002°15'510.2
2017-Sep-12 03:30N 47°13' W 002°23'610.8
2017-Sep-12 02:57N 47°14' W 002°31'510.5
2017-Sep-12 02:30N 47°14' W 002°38'  
Track history (hours):
 
Tides and Currents Weather Stations Pressure Air Temp Water Temp Dewpoint Dewpoint Depression Visibility Wind Speed Wind Dir Waves Ship Positions

St Pierre

Last reported at 2017-Sep-22 02:00 UTC. Time now 2017-Sep-22 22:46 UTC.
Position N 47°12' W 001°37'.

Length 84 m; draft 6.1 m.

Type: Cargo ship. MMSI: 228024800.

Date/timePositionNaut miles runAvg speedWind from/ knotsBaromVisibWave heightAir tempDewpointWater temp
2017-Sep-22 02:00N 47°12' W 001°37'0 0.0
2017-Sep-22 01:30N 47°12' W 001°37'0 0.0
2017-Sep-22 01:00N 47°12' W 001°37'0 0.0
2017-Sep-22 00:31N 47°12' W 001°37'0 0.0
2017-Sep-22 00:00N 47°12' W 001°37'0 0.0
2017-Sep-21 23:31N 47°12' W 001°37'0 0.0
2017-Sep-21 23:00N 47°12' W 001°37'0 0.0
2017-Sep-21 22:31N 47°12' W 001°37'0 0.0
2017-Sep-21 22:01N 47°12' W 001°37'0 0.0
2017-Sep-21 21:30N 47°12' W 001°37'0 0.0
2017-Sep-21 21:00N 47°12' W 001°37'0 0.0
2017-Sep-21 20:30N 47°12' W 001°37'0 0.0
2017-Sep-21 20:00N 47°12' W 001°37'0 0.0
2017-Sep-21 19:30N 47°12' W 001°37'0 0.0
2017-Sep-21 19:00N 47°12' W 001°37'0 0.0
2017-Sep-21 18:30N 47°12' W 001°37'0 0.0
2017-Sep-21 18:01N 47°12' W 001°37'1 1.5
2017-Sep-21 17:31N 47°12' W 001°38'0 0.0
2017-Sep-21 17:01N 47°12' W 001°38'0 0.0
2017-Sep-21 16:31N 47°12' W 001°38'0 0.0
2017-Sep-21 16:01N 47°12' W 001°38'2 3.2
2017-Sep-21 15:31N 47°12' W 001°40'611.7
2017-Sep-21 15:01N 47°13' W 001°49'611.4
2017-Sep-21 14:30N 47°17' W 001°55'612.6
2017-Sep-21 14:01N 47°18' W 002°04'612.0
2017-Sep-21 13:31N 47°16' W 002°12'611.8
2017-Sep-21 13:00N 47°11' W 002°18'611.1
2017-Sep-21 12:31N 47°07' W 002°23'611.6
2017-Sep-21 12:00N 47°03' W 002°29'5 4.4
2017-Sep-21 10:51N 46°59' W 002°34'0 0.8
2017-Sep-21 10:30N 46°59' W 002°34'2 3.2
2017-Sep-21 10:01N 47°00' W 002°32'510.3
2017-Sep-21 09:31N 47°04' W 002°27'510.3
2017-Sep-21 09:00N 47°08' W 002°21'510.3
2017-Sep-21 08:30N 47°12' W 002°17'612.3
2017-Sep-21 08:00N 47°16' W 002°11'612.1
2017-Sep-21 07:30N 47°18' W 002°02'612.4
2017-Sep-21 07:01N 47°17' W 001°54'611.5
2017-Sep-21 06:31N 47°13' W 001°47'510.4
2017-Sep-21 06:01N 47°12' W 001°40'1 2.8
2017-Sep-21 05:30N 47°12' W 001°38'0 0.0
2017-Sep-21 05:01N 47°12' W 001°38'0 0.0
2017-Sep-21 04:31N 47°12' W 001°38'0 0.0
2017-Sep-21 04:01N 47°12' W 001°38'0 0.0
2017-Sep-21 03:30N 47°12' W 001°38'0 0.0
2017-Sep-21 03:00N 47°12' W 001°38'0 0.0
2017-Sep-21 02:31N 47°12' W 001°38'0 0.0
2017-Sep-21 02:00N 47°12' W 001°38'0 0.0
2017-Sep-21 01:31N 47°12' W 001°38'0 0.0
2017-Sep-21 01:01N 47°12' W 001°38'0 0.0
2017-Sep-21 00:31N 47°12' W 001°38'0 0.0
2017-Sep-21 00:01N 47°12' W 001°38'0 0.0
2017-Sep-20 23:31N 47°12' W 001°38'0 0.0
2017-Sep-20 23:01N 47°12' W 001°38'0 0.0
2017-Sep-20 22:30N 47°12' W 001°38'0 0.0
2017-Sep-20 22:01N 47°12' W 001°38'0 0.0
2017-Sep-20 21:31N 47°12' W 001°38'0 0.0
2017-Sep-20 21:01N 47°12' W 001°38'0 0.0
2017-Sep-20 20:31N 47°12' W 001°38'0 0.0
2017-Sep-20 20:00N 47°12' W 001°38'0 0.0
2017-Sep-20 19:30N 47°12' W 001°38'0 0.0
2017-Sep-20 19:00N 47°12' W 001°38'0 0.0
2017-Sep-20 18:30N 47°12' W 001°38'0 0.0
2017-Sep-20 18:01N 47°12' W 001°38'0 0.2
2017-Sep-20 17:31N 47°12' W 001°38'0 0.0
2017-Sep-20 17:01N 47°12' W 001°38'0 0.0
2017-Sep-20 16:31N 47°12' W 001°38'0 0.0
2017-Sep-20 16:00N 47°12' W 001°38'0 0.0
2017-Sep-20 15:30N 47°12' W 001°38'0 0.0
2017-Sep-20 15:00N 47°12' W 001°38'2 2.3
2017-Sep-20 14:00N 47°12' W 001°41'510.7
2017-Sep-20 13:30N 47°13' W 001°49'510.7
2017-Sep-20 13:01N 47°17' W 001°55'611.6
2017-Sep-20 12:31N 47°18' W 002°03'510.4
2017-Sep-20 12:01N 47°17' W 002°11'510.4
2017-Sep-20 11:30N 47°13' W 002°16'510.6
2017-Sep-20 11:01N 47°09' W 002°20'611.3
2017-Sep-20 10:31N 47°05' W 002°26'610.9
2017-Sep-20 09:55N 47°01' W 002°33'2 4.9
2017-Sep-20 09:30N 46°59' W 002°35'1 2.0
2017-Sep-20 08:58N 46°60' W 002°34'1 1.7
2017-Sep-20 08:30N 47°00' W 002°33'4 7.6
2017-Sep-20 08:00N 47°03' W 002°29'611.2
2017-Sep-20 07:30N 47°06' W 002°23'510.4
2017-Sep-20 07:00N 47°11' W 002°18'510.9
2017-Sep-20 06:31N 47°15' W 002°14'510.9
2017-Sep-20 06:00N 47°18' W 002°07'0 0.2
2017-Sep-20 05:30N 47°18' W 002°07'0 0.0
2017-Sep-20 05:00N 47°18' W 002°07'0 0.0
2017-Sep-20 04:31N 47°18' W 002°07'0 0.0
2017-Sep-20 04:01N 47°18' W 002°07'3 6.1
2017-Sep-20 03:31N 47°17' W 002°11'4 8.8
2017-Sep-20 03:01N 47°14' W 002°16'4 8.3
2017-Sep-20 02:30N 47°10' W 002°18'4 8.4
2017-Sep-20 02:01N 47°07' W 002°22'5 9.0
2017-Sep-20 01:30N 47°04' W 002°27'7 9.2
2017-Sep-20 00:46N 47°00' W 002°36'0 1.2
2017-Sep-20 00:31N 46°60' W 002°36'1 2.8
2017-Sep-20 00:00N 46°60' W 002°34'0 0.6
2017-Sep-19 23:30N 46°60' W 002°33'1 1.3
2017-Sep-19 23:00N 46°59' W 002°34'0 0.1
2017-Sep-19 22:25N 46°59' W 002°34'0 0.7
2017-Sep-19 22:00N 46°59' W 002°34'0 0.9
2017-Sep-19 21:31N 46°60' W 002°34'2 4.2
2017-Sep-19 21:00N 47°01' W 002°31'510.4
2017-Sep-19 20:30N 47°04' W 002°26'611.1
2017-Sep-19 20:00N 47°08' W 002°20'611.4
2017-Sep-19 19:30N 47°13' W 002°16'613.0
2017-Sep-19 19:01N 47°18' W 002°09'1 2.8
2017-Sep-19 18:30N 47°18' W 002°07'0 0.0
2017-Sep-19 18:01N 47°18' W 002°07'0 0.0
2017-Sep-19 17:31N 47°18' W 002°07'0 0.0
2017-Sep-19 17:01N 47°18' W 002°07'0 0.0
2017-Sep-19 16:30N 47°18' W 002°07'0 0.0
2017-Sep-19 16:01N 47°18' W 002°07'0 0.0
2017-Sep-19 15:30N 47°18' W 002°07'0 0.0
2017-Sep-19 15:01N 47°18' W 002°07'0 0.0
2017-Sep-19 10:36N 47°18' W 002°07'0 0.0
2017-Sep-19 10:30N 47°18' W 002°07'0 0.0
2017-Sep-19 08:04N 47°18' W 002°07'0 0.0
2017-Sep-19 08:00N 47°18' W 002°07'0 0.0
2017-Sep-19 07:31N 47°18' W 002°07'0 0.0
2017-Sep-19 07:01N 47°18' W 002°07'0 0.0
2017-Sep-19 06:31N 47°18' W 002°07'0 0.0
2017-Sep-19 06:01N 47°18' W 002°07'0 0.0
2017-Sep-19 05:30N 47°18' W 002°07'0 0.0
2017-Sep-19 05:01N 47°18' W 002°07'0 0.0
2017-Sep-19 04:30N 47°18' W 002°07'0 0.0
2017-Sep-19 04:00N 47°18' W 002°07'0 0.0
2017-Sep-19 03:31N 47°18' W 002°07'0 0.0
2017-Sep-19 03:00N 47°18' W 002°07'0 0.0
2017-Sep-19 02:30N 47°18' W 002°07'0 0.3
2017-Sep-19 02:00N 47°18' W 002°07'0 0.0
2017-Sep-19 01:30N 47°18' W 002°07'0 0.0
2017-Sep-19 01:01N 47°18' W 002°07'0 0.0
2017-Sep-19 00:30N 47°18' W 002°07'1 1.8
2017-Sep-19 00:00N 47°18' W 002°08'713.3
2017-Sep-18 23:30N 47°14' W 002°16'713.3
2017-Sep-18 23:01N 47°08' W 002°20'713.5
2017-Sep-18 22:30N 47°03' W 002°28'611.2
2017-Sep-18 21:59N 46°60' W 002°34'0 0.9
2017-Sep-18 21:30N 46°60' W 002°34'0 1.0
2017-Sep-18 21:00N 46°59' W 002°34'0 0.3
2017-Sep-18 20:30N 46°59' W 002°34'1 1.5
2017-Sep-18 20:00N 46°60' W 002°33'713.2
2017-Sep-18 19:30N 47°04' W 002°26'713.9
2017-Sep-18 19:00N 47°09' W 002°19'714.8
2017-Sep-18 18:30N 47°15' W 002°13'612.9
2017-Sep-18 18:00N 47°18' W 002°04'713.6
2017-Sep-18 17:30N 47°17' W 001°54'612.5
2017-Sep-18 17:00N 47°13' W 001°47'510.6
2017-Sep-18 16:30N 47°12' W 001°40'1 2.8
2017-Sep-18 16:01N 47°12' W 001°38'0 0.0
2017-Sep-18 15:31N 47°12' W 001°38'0 0.0
2017-Sep-18 15:01N 47°12' W 001°38'1 1.8
2017-Sep-18 14:30N 47°12' W 001°39'610.8
2017-Sep-18 14:00N 47°13' W 001°47'611.9
2017-Sep-18 13:31N 47°17' W 001°54'612.2
2017-Sep-18 12:59N 47°18' W 002°03'3 6.4
2017-Sep-18 12:30N 47°18' W 002°07'3 5.2
2017-Sep-18 12:00N 47°17' W 002°10'713.6
2017-Sep-18 11:30N 47°12' W 002°17'612.9
2017-Sep-18 11:00N 47°06' W 002°22'1112.9
2017-Sep-18 10:08N 46°59' W 002°35'0 2.3
2017-Sep-18 10:00N 46°59' W 002°35'1 1.3
2017-Sep-18 09:16N 46°60' W 002°34'0 1.4
2017-Sep-18 08:58N 47°00' W 002°33'2 3.6
2017-Sep-18 08:30N 47°01' W 002°31'713.7
2017-Sep-18 08:00N 47°06' W 002°25'713.9
2017-Sep-18 07:30N 47°11' W 002°18'815.7
2017-Sep-18 07:00N 47°17' W 002°10'2 4.2
2017-Sep-18 06:30N 47°18' W 002°07'0 0.0
2017-Sep-18 06:00N 47°18' W 002°07'3 6.5
2017-Sep-18 05:30N 47°16' W 002°11'510.2
2017-Sep-18 05:00N 47°13' W 002°17'1 2.9
2017-Sep-18 04:30N 47°12' W 002°18'0 0.0
2017-Sep-18 04:00N 47°12' W 002°18'0 0.0
2017-Sep-18 03:30N 47°12' W 002°18'0 0.0
2017-Sep-18 03:00N 47°12' W 002°18'0 0.1
2017-Sep-18 02:30N 47°12' W 002°18'0 0.1
2017-Sep-18 02:00N 47°12' W 002°18'0 0.0
2017-Sep-18 01:30N 47°12' W 002°18'0 0.0
2017-Sep-18 01:00N 47°12' W 002°18'0 0.0
2017-Sep-18 00:30N 47°12' W 002°18'0 0.0
2017-Sep-18 00:00N 47°12' W 002°18'0 0.0
2017-Sep-17 23:30N 47°12' W 002°18'0 0.0
2017-Sep-17 23:00N 47°12' W 002°18'0 0.0
2017-Sep-17 22:30N 47°12' W 002°18'0 0.0
2017-Sep-17 22:00N 47°12' W 002°18'0 0.0
2017-Sep-17 21:30N 47°12' W 002°18'0 0.1
2017-Sep-17 21:00N 47°12' W 002°18'0 0.2
2017-Sep-17 20:30N 47°12' W 002°18'3 6.4
2017-Sep-17 20:00N 47°13' W 002°23'612.6
2017-Sep-17 19:30N 47°14' W 002°32'612.6
2017-Sep-17 19:00N 47°14' W 002°41'612.6
2017-Sep-17 18:30N 47°17' W 002°50'612.4
2017-Sep-17 18:00N 47°20' W 002°58'612.8
2017-Sep-17 17:30N 47°23' W 003°06'611.8
2017-Sep-17 17:00N 47°27' W 003°12'612.9
2017-Sep-17 16:30N 47°33' W 003°16'612.9
2017-Sep-17 16:00N 47°39' W 003°21'510.1
2017-Sep-17 15:30N 47°44' W 003°22'2 4.2
2017-Sep-17 15:00N 47°45' W 003°19'0 0.0
2017-Sep-17 14:30N 47°45' W 003°19'0 0.0
2017-Sep-17 14:00N 47°45' W 003°19'0 0.0
2017-Sep-17 13:30N 47°45' W 003°19'0 0.0
2017-Sep-17 13:00N 47°45' W 003°19'0 0.9
2017-Sep-17 12:30N 47°45' W 003°20'4 8.4
2017-Sep-17 12:00N 47°41' W 003°24'1 2.5
2017-Sep-17 11:30N 47°40' W 003°25'0 0.0
2017-Sep-17 11:00N 47°40' W 003°25'0 0.0
2017-Sep-17 10:30N 47°40' W 003°25'0 0.0
2017-Sep-17 10:00N 47°40' W 003°25'0 0.0
2017-Sep-17 09:30N 47°40' W 003°25'0 0.0
2017-Sep-17 09:00N 47°40' W 003°25'0 0.0
2017-Sep-17 08:30N 47°40' W 003°25'0 0.0
2017-Sep-17 08:00N 47°40' W 003°25'0 0.0
2017-Sep-17 07:30N 47°40' W 003°25'0 0.2
2017-Sep-17 07:00N 47°40' W 003°25'0 0.0
2017-Sep-17 06:30N 47°40' W 003°25'0 0.1
2017-Sep-17 06:00N 47°40' W 003°25'0 0.0
2017-Sep-17 05:30N 47°40' W 003°25'0 0.4
2017-Sep-17 05:00N 47°40' W 003°25'2 4.5
2017-Sep-17 04:30N 47°39' W 003°22'2 4.8
2017-Sep-17 04:00N 47°38' W 003°19'3 5.3
2017-Sep-17 03:30N 47°35' W 003°17'3 6.0
2017-Sep-17 03:00N 47°33' W 003°15'3 5.8
2017-Sep-17 02:30N 47°30' W 003°13'3 5.6
2017-Sep-17 02:00N 47°27' W 003°12'2 5.0
2017-Sep-17 01:30N 47°25' W 003°09'3 6.3
2017-Sep-17 01:00N 47°23' W 003°06'4 7.4
2017-Sep-17 00:30N 47°21' W 003°02'4 7.4
2017-Sep-17 00:00N 47°18' W 002°58'4 7.4
2017-Sep-16 23:30N 47°15' W 002°55'4 7.4
2017-Sep-16 23:00N 47°12' W 002°51'4 7.3
2017-Sep-16 22:30N 47°09' W 002°48'4 7.3
2017-Sep-16 22:00N 47°07' W 002°44'8 7.6
2017-Sep-16 20:53N 47°01' W 002°36'1 3.5
2017-Sep-16 20:30N 46°60' W 002°34'1 1.1
2017-Sep-16 20:00N 46°60' W 002°34'1 1.2
2017-Sep-16 19:30N 47°00' W 002°33'3 4.8
2017-Sep-16 18:54N 47°02' W 002°30'512.8
2017-Sep-16 18:30N 47°06' W 002°25'613.0
2017-Sep-16 18:00N 47°11' W 002°18'713.9
2017-Sep-16 17:30N 47°16' W 002°12'611.6
2017-Sep-16 17:00N 47°18' W 002°04'713.5
2017-Sep-16 16:30N 47°17' W 001°54'612.7
2017-Sep-16 16:00N 47°13' W 001°47'510.7
2017-Sep-16 15:30N 47°11' W 001°39'1 1.8
2017-Sep-16 15:00N 47°12' W 001°38'0 0.0
2017-Sep-16 14:30N 47°12' W 001°38'0 0.0
2017-Sep-16 14:00N 47°12' W 001°38'0 0.0
2017-Sep-16 13:30N 47°12' W 001°38'3 6.0
2017-Sep-16 13:00N 47°12' W 001°42'510.3
2017-Sep-16 12:30N 47°13' W 001°50'510.2
2017-Sep-16 12:00N 47°17' W 001°55'611.1
2017-Sep-16 11:30N 47°18' W 002°03'611.4
2017-Sep-16 11:00N 47°16' W 002°11'612.5
2017-Sep-16 10:30N 47°12' W 002°17'611.3
2017-Sep-16 10:00N 47°07' W 002°22'610.7
2017-Sep-16 09:29N 47°03' W 002°28'610.3
2017-Sep-16 08:54N 46°60' W 002°35'0 1.2
2017-Sep-16 08:30N 46°60' W 002°34'1 1.1
2017-Sep-16 08:00N 47°00' W 002°34'1 1.3
2017-Sep-16 07:29N 47°00' W 002°33'3 6.8
2017-Sep-16 07:00N 47°03' W 002°29'612.3
2017-Sep-16 06:30N 47°07' W 002°23'612.4
2017-Sep-16 06:00N 47°12' W 002°17'713.7
2017-Sep-16 05:31N 47°17' W 002°11'611.7
2017-Sep-16 05:01N 47°18' W 002°02'612.7
2017-Sep-16 04:30N 47°16' W 001°53'612.1
2017-Sep-16 04:00N 47°12' W 001°46'510.5
2017-Sep-16 03:30N 47°11' W 001°39'0 1.0
2017-Sep-16 03:00N 47°12' W 001°38'0 0.0
2017-Sep-16 02:30N 47°12' W 001°38'0 0.0
2017-Sep-16 02:00N 47°12' W 001°38'0 0.0
2017-Sep-16 01:30N 47°12' W 001°38'0 0.0
2017-Sep-16 01:00N 47°12' W 001°38'2 4.9
2017-Sep-16 00:30N 47°12' W 001°41'510.5
2017-Sep-16 00:00N 47°13' W 001°49'510.6
2017-Sep-15 23:30N 47°17' W 001°55'611.5
2017-Sep-15 23:00N 47°18' W 002°03'611.4
2017-Sep-15 22:30N 47°16' W 002°11'612.5
2017-Sep-15 22:00N 47°12' W 002°17'612.0
2017-Sep-15 21:30N 47°07' W 002°22'1211.8
2017-Sep-15 20:31N 46°60' W 002°35'0 2.6
2017-Sep-15 20:28N 46°59' W 002°35'1 1.2
2017-Sep-15 20:00N 46°60' W 002°34'1 1.2
2017-Sep-15 19:30N 46°60' W 002°34'1 1.3
2017-Sep-15 18:57N 47°00' W 002°33'1 1.8
2017-Sep-15 18:30N 47°01' W 002°32'611.5
2017-Sep-15 17:59N 47°05' W 002°26'612.8
2017-Sep-15 17:30N 47°09' W 002°19'713.8
2017-Sep-15 17:00N 47°15' W 002°14'510.5
2017-Sep-15 16:29N 47°18' W 002°07'0 0.0
2017-Sep-15 15:59N 47°18' W 002°07'0 0.0
2017-Sep-15 15:29N 47°18' W 002°07'0 0.0
2017-Sep-15 14:50N 47°18' W 002°07'0 0.0
2017-Sep-15 14:29N 47°18' W 002°07'0 0.0
2017-Sep-15 13:59N 47°18' W 002°07'0 0.0
2017-Sep-15 13:29N 47°18' W 002°07'0 0.0
2017-Sep-15 13:01N 47°18' W 002°07'0 0.0
2017-Sep-15 12:30N 47°18' W 002°07'0 0.0
2017-Sep-15 12:01N 47°18' W 002°07'0 0.0
2017-Sep-15 11:30N 47°18' W 002°07'0 0.0
2017-Sep-15 11:01N 47°18' W 002°07'0 0.0
2017-Sep-15 10:31N 47°18' W 002°07'0 0.0
2017-Sep-15 10:00N 47°18' W 002°07'0 0.0
2017-Sep-15 09:30N 47°18' W 002°07'0 0.0
2017-Sep-15 09:00N 47°18' W 002°07'0 0.0
2017-Sep-15 08:30N 47°18' W 002°07'0 0.0
2017-Sep-15 08:01N 47°18' W 002°07'0 0.0
2017-Sep-15 07:30N 47°18' W 002°07'0 0.0
2017-Sep-15 07:00N 47°18' W 002°07'0 0.0
2017-Sep-15 06:30N 47°18' W 002°07'0 0.0
2017-Sep-15 06:00N 47°18' W 002°07'0 0.0
2017-Sep-15 05:31N 47°18' W 002°07'0 0.0
2017-Sep-15 05:01N 47°18' W 002°07'0 0.0
2017-Sep-15 04:31N 47°18' W 002°07'0 0.0
2017-Sep-15 04:00N 47°18' W 002°07'0 0.0
2017-Sep-15 03:30N 47°18' W 002°07'2 4.4
2017-Sep-15 03:00N 47°18' W 002°04'613.1
2017-Sep-15 02:31N 47°17' W 001°55'612.3
2017-Sep-15 02:00N 47°13' W 001°48'510.7
2017-Sep-15 01:30N 47°12' W 001°40'2 3.0
2017-Sep-15 01:00N 47°12' W 001°38'0 0.0
2017-Sep-15 00:30N 47°12' W 001°38'0 0.0
2017-Sep-15 00:00N 47°12' W 001°38'0 0.0
2017-Sep-14 23:30N 47°12' W 001°38'1 1.5
2017-Sep-14 23:00N 47°11' W 001°39'5 9.8
2017-Sep-14 22:30N 47°12' W 001°46'5 9.6
2017-Sep-14 22:00N 47°16' W 001°51'510.4
2017-Sep-14 21:30N 47°17' W 001°59'510.8
2017-Sep-14 21:00N 47°18' W 002°06'611.5
2017-Sep-14 20:30N 47°15' W 002°14'611.2
2017-Sep-14 20:00N 47°10' W 002°18'15 6.4
2017-Sep-14 17:40N 46°60' W 002°34'0 1.3
2017-Sep-14 17:25N 46°60' W 002°34'0 1.1
2017-Sep-14 17:00N 47°00' W 002°33'1 2.9
2017-Sep-14 16:30N 47°01' W 002°31'4 8.0
2017-Sep-14 16:00N 47°03' W 002°26'611.1
2017-Sep-14 15:30N 47°07' W 002°21'611.9
2017-Sep-14 15:00N 47°13' W 002°17'813.2
2017-Sep-14 14:24N 47°18' W 002°08'512.5
2017-Sep-14 14:00N 47°18' W 002°01'712.3
2017-Sep-14 13:27N 47°16' W 001°51'611.0
2017-Sep-14 12:55N 47°12' W 001°44'4 8.7
2017-Sep-14 12:26N 47°12' W 001°38'0 0.0
2017-Sep-14 11:41N 47°12' W 001°38'0 0.0
2017-Sep-14 11:30N 47°12' W 001°38'0 0.0
2017-Sep-14 10:56N 47°12' W 001°38'0 0.0
2017-Sep-14 10:26N 47°12' W 001°38'0 0.0
2017-Sep-14 09:59N 47°12' W 001°38'0 0.0
2017-Sep-14 09:29N 47°12' W 001°38'0 0.0
2017-Sep-14 08:23N 47°12' W 001°38'0 0.0
2017-Sep-14 08:00N 47°12' W 001°38'0 0.0
2017-Sep-14 07:30N 47°12' W 001°38'0 0.0
2017-Sep-14 07:00N 47°12' W 001°38'0 0.0
2017-Sep-14 06:30N 47°12' W 001°38'0 0.0
2017-Sep-14 06:00N 47°12' W 001°38'0 0.0
2017-Sep-14 05:30N 47°12' W 001°38'0 0.0
2017-Sep-14 05:00N 47°12' W 001°38'0 0.0
2017-Sep-14 04:30N 47°12' W 001°38'0 0.0
2017-Sep-14 04:00N 47°12' W 001°38'0 0.0
2017-Sep-14 03:30N 47°12' W 001°38'0 0.0
2017-Sep-14 03:00N 47°12' W 001°38'0 0.0
2017-Sep-14 02:29N 47°12' W 001°38'0 0.0
2017-Sep-14 02:00N 47°12' W 001°38'0 0.0
2017-Sep-14 01:30N 47°12' W 001°38'0 0.0
2017-Sep-14 01:00N 47°12' W 001°38'0 0.0
2017-Sep-14 00:30N 47°12' W 001°38'0 0.0
2017-Sep-14 00:00N 47°12' W 001°38'0 0.0
2017-Sep-13 23:30N 47°12' W 001°38'0 0.0
2017-Sep-13 23:00N 47°12' W 001°38'0 0.0
2017-Sep-13 22:30N 47°12' W 001°38'0 0.0
2017-Sep-13 22:00N 47°12' W 001°38'0 0.0
2017-Sep-13 21:30N 47°12' W 001°38'0 0.1
2017-Sep-13 21:00N 47°12' W 001°38'4 8.0
2017-Sep-13 20:30N 47°12' W 001°44'510.6
2017-Sep-13 20:00N 47°15' W 001°51'611.3
2017-Sep-13 19:30N 47°17' W 001°58'611.6
2017-Sep-13 19:00N 47°18' W 002°07'612.5
2017-Sep-13 18:30N 47°15' W 002°14'3 7.0
2017-Sep-13 18:00N 47°12' W 002°18'0 0.1
2017-Sep-13 17:29N 47°12' W 002°18'0 0.1
2017-Sep-13 17:00N 47°12' W 002°18'0 0.1
2017-Sep-13 16:30N 47°12' W 002°18'0 0.0
2017-Sep-13 15:59N 47°12' W 002°18'0 0.0
2017-Sep-13 15:30N 47°12' W 002°18'0 0.0
2017-Sep-13 15:00N 47°12' W 002°18'0 0.1
2017-Sep-13 14:28N 47°12' W 002°18'0 0.1
2017-Sep-13 14:00N 47°12' W 002°18'0 0.0
2017-Sep-13 13:30N 47°12' W 002°18'0 0.0
2017-Sep-13 13:00N 47°12' W 002°18'0 0.1
2017-Sep-13 12:30N 47°12' W 002°18'0 0.1
2017-Sep-13 12:00N 47°12' W 002°18'0 0.0
2017-Sep-13 11:30N 47°12' W 002°18'0 0.0
2017-Sep-13 10:33N 47°12' W 002°18'0 0.0
2017-Sep-13 10:24N 47°12' W 002°18'0 0.2
2017-Sep-13 09:57N 47°12' W 002°18'2 5.1
2017-Sep-13 09:30N 47°10' W 002°19'4 7.0
2017-Sep-13 08:58N 47°07' W 002°22'3 7.0
2017-Sep-13 08:30N 47°05' W 002°25'4 7.1
2017-Sep-13 07:57N 47°02' W 002°30'4 6.8
2017-Sep-13 07:18N 46°59' W 002°35'0 1.2
2017-Sep-13 06:59N 46°60' W 002°35'1 1.3
2017-Sep-13 06:30N 46°60' W 002°34'1 1.3
2017-Sep-13 05:57N 47°00' W 002°33'2 3.5
2017-Sep-13 05:30N 47°01' W 002°31'3 6.0
2017-Sep-13 05:00N 47°03' W 002°27'3 6.5
2017-Sep-13 04:30N 47°05' W 002°24'2 3.2
2017-Sep-13 04:00N 47°06' W 002°22'0 0.1
2017-Sep-13 03:30N 47°06' W 002°22'0 0.5
2017-Sep-13 03:00N 47°06' W 002°22'0 0.5
2017-Sep-13 02:30N 47°06' W 002°21'0 1.0
2017-Sep-13 02:00N 47°06' W 002°20'1 1.1
2017-Sep-13 01:30N 47°06' W 002°20'2 3.2
2017-Sep-13 01:00N 47°07' W 002°21'510.0
2017-Sep-13 00:30N 47°11' W 002°18'611.9
2017-Sep-13 00:00N 47°16' W 002°12'611.6
2017-Sep-12 23:30N 47°18' W 002°04'612.5
2017-Sep-12 23:00N 47°17' W 001°55'611.8
2017-Sep-12 22:30N 47°13' W 001°49'510.9
2017-Sep-12 22:00N 47°12' W 001°41'2 3.9
2017-Sep-12 21:30N 47°12' W 001°38'0 0.0
2017-Sep-12 21:00N 47°12' W 001°38'0 0.0
2017-Sep-12 20:30N 47°12' W 001°38'0 0.0
2017-Sep-12 20:00N 47°12' W 001°38'0 0.0
2017-Sep-12 19:30N 47°12' W 001°38'1 1.8
2017-Sep-12 19:00N 47°12' W 001°39'510.7
2017-Sep-12 18:30N 47°13' W 001°47'511.0
2017-Sep-12 18:00N 47°16' W 001°53'510.9
2017-Sep-12 17:30N 47°17' W 002°01'4 8.6
2017-Sep-12 16:59N 47°18' W 002°07'1 2.1
2017-Sep-12 16:21N 47°18' W 002°09'712.6
2017-Sep-12 15:48N 47°13' W 002°16'412.1
2017-Sep-12 15:30N 47°10' W 002°19'6 1.4
2017-Sep-12 11:28N 47°05' W 002°24'1312.3
2017-Sep-12 10:27N 47°15' W 002°13'5 3.0
2017-Sep-12 08:48N 47°18' W 002°07'0 0.0
2017-Sep-12 08:30N 47°18' W 002°07'0 0.0
2017-Sep-12 08:00N 47°18' W 002°07'0 0.0
2017-Sep-12 07:30N 47°18' W 002°07'0 0.0
2017-Sep-12 07:00N 47°18' W 002°07'0 0.0
2017-Sep-12 06:30N 47°18' W 002°07'0 0.0
2017-Sep-12 06:00N 47°18' W 002°07'0 0.0
2017-Sep-12 05:30N 47°18' W 002°07'0 0.0
2017-Sep-12 05:00N 47°18' W 002°07'1 1.4
2017-Sep-12 04:30N 47°18' W 002°08'612.5
2017-Sep-12 04:00N 47°14' W 002°15'510.2
2017-Sep-12 03:30N 47°13' W 002°23'610.8
2017-Sep-12 02:57N 47°14' W 002°31'510.5
2017-Sep-12 02:30N 47°14' W 002°38'  

Dump ship's entire track history